sensor_id;sensor_type;location;lat;lon;timestamp;temperature;humidity
16158;DHT22;8184;60.256;18.694;2023-03-01T00:02:12;1.80;99.90
16158;DHT22;8184;60.256;18.694;2023-03-01T00:04:40;1.70;99.90
16158;DHT22;8184;60.256;18.694;2023-03-01T00:07:08;1.70;99.90
16158;DHT22;8184;60.256;18.694;2023-03-01T00:09:36;1.70;99.90
16158;DHT22;8184;60.256;18.694;2023-03-01T00:12:08;1.80;99.90
16158;DHT22;8184;60.256;18.694;2023-03-01T00:14:36;1.70;99.90
16158;DHT22;8184;60.256;18.694;2023-03-01T00:17:04;1.70;99.90
16158;DHT22;8184;60.256;18.694;2023-03-01T00:19:33;1.80;99.90
16158;DHT22;8184;60.256;18.694;2023-03-01T00:22:02;1.70;99.90
16158;DHT22;8184;60.256;18.694;2023-03-01T00:24:30;1.80;99.90
16158;DHT22;8184;60.256;18.694;2023-03-01T00:27:01;1.80;99.90
16158;DHT22;8184;60.256;18.694;2023-03-01T00:29:33;1.80;99.90
16158;DHT22;8184;60.256;18.694;2023-03-01T00:32:01;1.80;99.90
16158;DHT22;8184;60.256;18.694;2023-03-01T00:34:30;1.80;99.90
16158;DHT22;8184;60.256;18.694;2023-03-01T00:36:58;1.90;99.90
16158;DHT22;8184;60.256;18.694;2023-03-01T00:39:32;1.90;99.90
16158;DHT22;8184;60.256;18.694;2023-03-01T00:42:00;1.80;99.90
16158;DHT22;8184;60.256;18.694;2023-03-01T00:44:28;1.90;99.90
16158;DHT22;8184;60.256;18.694;2023-03-01T00:46:58;1.90;99.90
16158;DHT22;8184;60.256;18.694;2023-03-01T00:49:26;1.90;99.90
16158;DHT22;8184;60.256;18.694;2023-03-01T00:51:55;1.80;99.90
16158;DHT22;8184;60.256;18.694;2023-03-01T00:54:23;1.80;99.90
16158;DHT22;8184;60.256;18.694;2023-03-01T00:56:51;1.80;99.90
16158;DHT22;8184;60.256;18.694;2023-03-01T00:59:19;1.90;99.90
16158;DHT22;8184;60.256;18.694;2023-03-01T01:01:48;1.80;99.90
16158;DHT22;8184;60.256;18.694;2023-03-01T01:04:17;1.70;99.90
16158;DHT22;8184;60.256;18.694;2023-03-01T01:06:46;1.70;99.90
16158;DHT22;8184;60.256;18.694;2023-03-01T01:09:15;1.70;99.90
16158;DHT22;8184;60.256;18.694;2023-03-01T01:11:44;1.70;99.90
16158;DHT22;8184;60.256;18.694;2023-03-01T01:14:13;1.70;99.90
16158;DHT22;8184;60.256;18.694;2023-03-01T01:16:41;1.80;99.90
16158;DHT22;8184;60.256;18.694;2023-03-01T01:19:10;1.80;99.90
16158;DHT22;8184;60.256;18.694;2023-03-01T01:21:40;1.80;99.90
16158;DHT22;8184;60.256;18.694;2023-03-01T01:24:10;1.70;99.90
16158;DHT22;8184;60.256;18.694;2023-03-01T01:26:38;1.70;99.90
16158;DHT22;8184;60.256;18.694;2023-03-01T01:29:06;1.60;99.90
16158;DHT22;8184;60.256;18.694;2023-03-01T01:34:01;1.60;99.90
16158;DHT22;8184;60.256;18.694;2023-03-01T01:36:30;1.50;99.90
16158;DHT22;8184;60.256;18.694;2023-03-01T01:38:59;1.50;99.90
16158;DHT22;8184;60.256;18.694;2023-03-01T01:41:27;1.40;99.90
16158;DHT22;8184;60.256;18.694;2023-03-01T01:44:15;1.40;99.90
16158;DHT22;8184;60.256;18.694;2023-03-01T01:46:44;1.40;99.90
16158;DHT22;8184;60.256;18.694;2023-03-01T01:49:26;1.30;99.90
16158;DHT22;8184;60.256;18.694;2023-03-01T01:51:58;1.40;99.90
16158;DHT22;8184;60.256;18.694;2023-03-01T01:54:29;1.30;99.90
16158;DHT22;8184;60.256;18.694;2023-03-01T01:57:00;1.30;99.90
16158;DHT22;8184;60.256;18.694;2023-03-01T01:59:29;1.30;99.90
16158;DHT22;8184;60.256;18.694;2023-03-01T02:01:58;1.30;99.90
16158;DHT22;8184;60.256;18.694;2023-03-01T02:04:29;1.20;99.90
16158;DHT22;8184;60.256;18.694;2023-03-01T02:06:58;1.20;99.90
16158;DHT22;8184;60.256;18.694;2023-03-01T02:09:31;1.10;99.90
16158;DHT22;8184;60.256;18.694;2023-03-01T02:11:59;1.10;99.90
16158;DHT22;8184;60.256;18.694;2023-03-01T02:14:28;1.10;99.90
16158;DHT22;8184;60.256;18.694;2023-03-01T02:16:56;1.10;99.90
16158;DHT22;8184;60.256;18.694;2023-03-01T02:19:29;1.10;99.90
16158;DHT22;8184;60.256;18.694;2023-03-01T02:22:01;1.10;99.90
16158;DHT22;8184;60.256;18.694;2023-03-01T02:24:35;1.20;99.90
16158;DHT22;8184;60.256;18.694;2023-03-01T02:27:08;1.30;99.90
16158;DHT22;8184;60.256;18.694;2023-03-01T02:29:38;1.20;99.90
16158;DHT22;8184;60.256;18.694;2023-03-01T02:32:07;1.30;99.90
16158;DHT22;8184;60.256;18.694;2023-03-01T02:34:37;1.40;99.90
16158;DHT22;8184;60.256;18.694;2023-03-01T02:37:07;1.30;99.90
16158;DHT22;8184;60.256;18.694;2023-03-01T02:39:36;1.30;99.90
16158;DHT22;8184;60.256;18.694;2023-03-01T02:42:09;1.30;99.90
16158;DHT22;8184;60.256;18.694;2023-03-01T02:44:40;1.20;99.90
16158;DHT22;8184;60.256;18.694;2023-03-01T02:47:08;1.20;99.90
16158;DHT22;8184;60.256;18.694;2023-03-01T02:49:36;1.30;99.90
16158;DHT22;8184;60.256;18.694;2023-03-01T02:52:08;1.20;99.90
16158;DHT22;8184;60.256;18.694;2023-03-01T02:54:40;1.30;99.90
16158;DHT22;8184;60.256;18.694;2023-03-01T02:57:13;1.40;99.90
16158;DHT22;8184;60.256;18.694;2023-03-01T02:59:43;1.40;99.90
16158;DHT22;8184;60.256;18.694;2023-03-01T03:02:20;1.40;99.90
16158;DHT22;8184;60.256;18.694;2023-03-01T03:05:07;1.30;99.90
16158;DHT22;8184;60.256;18.694;2023-03-01T03:07:36;1.30;99.90
16158;DHT22;8184;60.256;18.694;2023-03-01T03:10:06;1.40;99.90
16158;DHT22;8184;60.256;18.694;2023-03-01T03:12:35;1.40;99.90
16158;DHT22;8184;60.256;18.694;2023-03-01T03:15:05;1.40;99.90
16158;DHT22;8184;60.256;18.694;2023-03-01T03:17:35;1.40;99.90
16158;DHT22;8184;60.256;18.694;2023-03-01T03:20:04;1.40;99.90
16158;DHT22;8184;60.256;18.694;2023-03-01T03:22:37;1.30;99.90
16158;DHT22;8184;60.256;18.694;2023-03-01T03:25:08;1.20;99.90
16158;DHT22;8184;60.256;18.694;2023-03-01T03:27:40;1.10;99.90
16158;DHT22;8184;60.256;18.694;2023-03-01T03:30:12;1.10;99.90
16158;DHT22;8184;60.256;18.694;2023-03-01T03:32:42;1.10;99.90
16158;DHT22;8184;60.256;18.694;2023-03-01T03:35:19;1.10;99.90
16158;DHT22;8184;60.256;18.694;2023-03-01T03:37:50;1.00;99.90
16158;DHT22;8184;60.256;18.694;2023-03-01T03:40:36;1.10;99.90
16158;DHT22;8184;60.256;18.694;2023-03-01T03:43:05;1.00;99.90
16158;DHT22;8184;60.256;18.694;2023-03-01T03:45:35;1.00;99.90
16158;DHT22;8184;60.256;18.694;2023-03-01T03:48:04;0.90;99.90
16158;DHT22;8184;60.256;18.694;2023-03-01T03:50:33;0.90;99.90
16158;DHT22;8184;60.256;18.694;2023-03-01T03:53:02;0.90;99.90
16158;DHT22;8184;60.256;18.694;2023-03-01T03:55:31;1.00;99.90
16158;DHT22;8184;60.256;18.694;2023-03-01T03:58:01;1.00;99.90
16158;DHT22;8184;60.256;18.694;2023-03-01T04:00:35;1.00;99.90
16158;DHT22;8184;60.256;18.694;2023-03-01T04:03:04;0.90;99.90
16158;DHT22;8184;60.256;18.694;2023-03-01T04:05:33;0.90;99.90
16158;DHT22;8184;60.256;18.694;2023-03-01T04:08:01;0.90;99.90
16158;DHT22;8184;60.256;18.694;2023-03-01T04:10:31;0.80;99.90
16158;DHT22;8184;60.256;18.694;2023-03-01T04:13:02;0.80;99.90
16158;DHT22;8184;60.256;18.694;2023-03-01T04:15:31;0.90;99.90
16158;DHT22;8184;60.256;18.694;2023-03-01T04:18:01;0.80;99.90
16158;DHT22;8184;60.256;18.694;2023-03-01T04:20:30;0.90;99.90
16158;DHT22;8184;60.256;18.694;2023-03-01T04:23:03;0.80;99.90
16158;DHT22;8184;60.256;18.694;2023-03-01T04:25:38;0.80;99.90
16158;DHT22;8184;60.256;18.694;2023-03-01T04:28:06;0.80;99.90
16158;DHT22;8184;60.256;18.694;2023-03-01T04:30:35;0.90;99.90
16158;DHT22;8184;60.256;18.694;2023-03-01T04:33:08;0.80;99.90
16158;DHT22;8184;60.256;18.694;2023-03-01T04:35:36;0.80;99.90
16158;DHT22;8184;60.256;18.694;2023-03-01T04:38:05;0.90;99.90
16158;DHT22;8184;60.256;18.694;2023-03-01T04:40:33;0.90;99.90
16158;DHT22;8184;60.256;18.694;2023-03-01T04:43:02;1.00;99.90
16158;DHT22;8184;60.256;18.694;2023-03-01T04:45:31;0.90;99.90
16158;DHT22;8184;60.256;18.694;2023-03-01T04:48:01;0.80;99.90
16158;DHT22;8184;60.256;18.694;2023-03-01T04:50:31;0.70;99.90
16158;DHT22;8184;60.256;18.694;2023-03-01T04:53:00;0.90;99.90
16158;DHT22;8184;60.256;18.694;2023-03-01T04:55:28;0.80;99.90
16158;DHT22;8184;60.256;18.694;2023-03-01T04:57:56;0.80;99.90
16158;DHT22;8184;60.256;18.694;2023-03-01T05:00:24;1.00;99.90
16158;DHT22;8184;60.256;18.694;2023-03-01T05:02:53;1.00;99.90
16158;DHT22;8184;60.256;18.694;2023-03-01T05:05:22;1.00;99.90
16158;DHT22;8184;60.256;18.694;2023-03-01T05:07:54;1.00;99.90
16158;DHT22;8184;60.256;18.694;2023-03-01T05:10:23;0.90;99.90
16158;DHT22;8184;60.256;18.694;2023-03-01T05:12:52;0.90;99.90
16158;DHT22;8184;60.256;18.694;2023-03-01T05:15:20;0.80;99.90
16158;DHT22;8184;60.256;18.694;2023-03-01T05:17:52;0.80;99.90
16158;DHT22;8184;60.256;18.694;2023-03-01T05:20:21;0.80;99.90
16158;DHT22;8184;60.256;18.694;2023-03-01T05:22:50;0.80;99.90
16158;DHT22;8184;60.256;18.694;2023-03-01T05:25:22;0.70;99.90
16158;DHT22;8184;60.256;18.694;2023-03-01T05:27:50;0.70;99.90
16158;DHT22;8184;60.256;18.694;2023-03-01T05:30:19;0.70;99.90
16158;DHT22;8184;60.256;18.694;2023-03-01T05:32:49;0.70;99.90
16158;DHT22;8184;60.256;18.694;2023-03-01T05:35:22;0.70;99.90
16158;DHT22;8184;60.256;18.694;2023-03-01T05:37:51;0.60;99.90
16158;DHT22;8184;60.256;18.694;2023-03-01T05:40:22;0.70;99.90
16158;DHT22;8184;60.256;18.694;2023-03-01T05:42:52;0.70;99.90
16158;DHT22;8184;60.256;18.694;2023-03-01T05:45:21;0.60;99.90
16158;DHT22;8184;60.256;18.694;2023-03-01T05:47:50;0.60;99.90
16158;DHT22;8184;60.256;18.694;2023-03-01T05:50:19;0.60;99.90
16158;DHT22;8184;60.256;18.694;2023-03-01T05:52:49;0.60;99.90
16158;DHT22;8184;60.256;18.694;2023-03-01T05:55:18;0.60;99.90
16158;DHT22;8184;60.256;18.694;2023-03-01T05:57:48;0.60;99.90
16158;DHT22;8184;60.256;18.694;2023-03-01T06:00:18;0.70;99.90
16158;DHT22;8184;60.256;18.694;2023-03-01T06:02:48;0.60;99.90
16158;DHT22;8184;60.256;18.694;2023-03-01T06:05:17;0.60;99.90
16158;DHT22;8184;60.256;18.694;2023-03-01T06:07:46;0.60;99.90
16158;DHT22;8184;60.256;18.694;2023-03-01T06:10:14;0.60;99.90
16158;DHT22;8184;60.256;18.694;2023-03-01T06:12:42;0.60;99.90
16158;DHT22;8184;60.256;18.694;2023-03-01T06:15:12;0.70;99.90
16158;DHT22;8184;60.256;18.694;2023-03-01T06:17:42;0.70;99.90
16158;DHT22;8184;60.256;18.694;2023-03-01T06:20:11;0.70;99.90
16158;DHT22;8184;60.256;18.694;2023-03-01T06:22:40;0.70;99.90
16158;DHT22;8184;60.256;18.694;2023-03-01T06:25:08;0.60;99.90
16158;DHT22;8184;60.256;18.694;2023-03-01T06:27:38;0.60;99.90
16158;DHT22;8184;60.256;18.694;2023-03-01T06:30:07;0.50;99.90
16158;DHT22;8184;60.256;18.694;2023-03-01T06:32:38;0.60;99.90
16158;DHT22;8184;60.256;18.694;2023-03-01T06:35:08;0.60;99.90
16158;DHT22;8184;60.256;18.694;2023-03-01T06:37:37;0.60;99.90
16158;DHT22;8184;60.256;18.694;2023-03-01T06:40:06;0.50;99.90
16158;DHT22;8184;60.256;18.694;2023-03-01T06:42:38;0.50;99.90
16158;DHT22;8184;60.256;18.694;2023-03-01T06:45:07;0.50;99.90
16158;DHT22;8184;60.256;18.694;2023-03-01T06:47:38;0.50;99.90
16158;DHT22;8184;60.256;18.694;2023-03-01T06:50:07;0.50;99.90
16158;DHT22;8184;60.256;18.694;2023-03-01T06:52:38;0.50;99.90
16158;DHT22;8184;60.256;18.694;2023-03-01T06:55:07;0.50;99.90
16158;DHT22;8184;60.256;18.694;2023-03-01T06:57:35;0.50;99.90
16158;DHT22;8184;60.256;18.694;2023-03-01T07:00:04;0.60;99.90
16158;DHT22;8184;60.256;18.694;2023-03-01T07:02:32;0.70;99.90
16158;DHT22;8184;60.256;18.694;2023-03-01T07:05:02;0.70;99.90
16158;DHT22;8184;60.256;18.694;2023-03-01T07:07:30;0.80;99.90
16158;DHT22;8184;60.256;18.694;2023-03-01T07:09:59;0.80;99.90
16158;DHT22;8184;60.256;18.694;2023-03-01T07:12:27;0.80;99.90
16158;DHT22;8184;60.256;18.694;2023-03-01T07:14:55;0.90;99.90
16158;DHT22;8184;60.256;18.694;2023-03-01T07:17:23;1.00;99.90
16158;DHT22;8184;60.256;18.694;2023-03-01T07:19:51;1.10;99.90
16158;DHT22;8184;60.256;18.694;2023-03-01T07:22:21;1.10;99.90
16158;DHT22;8184;60.256;18.694;2023-03-01T07:24:49;1.30;99.90
16158;DHT22;8184;60.256;18.694;2023-03-01T07:27:17;1.40;99.90
16158;DHT22;8184;60.256;18.694;2023-03-01T07:29:46;1.40;99.90
16158;DHT22;8184;60.256;18.694;2023-03-01T07:32:14;1.40;99.90
16158;DHT22;8184;60.256;18.694;2023-03-01T07:34:42;1.60;99.90
16158;DHT22;8184;60.256;18.694;2023-03-01T07:37:10;1.60;99.90
16158;DHT22;8184;60.256;18.694;2023-03-01T07:39:40;1.60;99.90
16158;DHT22;8184;60.256;18.694;2023-03-01T07:42:08;1.80;99.90
16158;DHT22;8184;60.256;18.694;2023-03-01T07:44:36;1.80;99.90
16158;DHT22;8184;60.256;18.694;2023-03-01T07:47:05;1.90;99.90
16158;DHT22;8184;60.256;18.694;2023-03-01T07:49:33;1.90;99.90
16158;DHT22;8184;60.256;18.694;2023-03-01T07:52:02;1.90;99.90
16158;DHT22;8184;60.256;18.694;2023-03-01T07:54:30;2.00;99.90
16158;DHT22;8184;60.256;18.694;2023-03-01T07:57:00;2.00;99.90
16158;DHT22;8184;60.256;18.694;2023-03-01T07:59:28;2.00;99.90
16158;DHT22;8184;60.256;18.694;2023-03-01T08:01:56;2.40;99.90
16158;DHT22;8184;60.256;18.694;2023-03-01T08:04:25;2.50;99.90
16158;DHT22;8184;60.256;18.694;2023-03-01T08:06:53;2.60;99.90
16158;DHT22;8184;60.256;18.694;2023-03-01T08:09:21;2.60;99.90
16158;DHT22;8184;60.256;18.694;2023-03-01T08:11:50;2.60;99.90
16158;DHT22;8184;60.256;18.694;2023-03-01T08:14:19;2.70;99.90
16158;DHT22;8184;60.256;18.694;2023-03-01T08:16:48;2.90;99.90
16158;DHT22;8184;60.256;18.694;2023-03-01T08:19:17;3.00;99.90
16158;DHT22;8184;60.256;18.694;2023-03-01T08:21:45;2.80;99.90
16158;DHT22;8184;60.256;18.694;2023-03-01T08:24:13;2.90;99.90
16158;DHT22;8184;60.256;18.694;2023-03-01T08:26:42;3.20;99.90
16158;DHT22;8184;60.256;18.694;2023-03-01T08:29:10;3.20;99.90
16158;DHT22;8184;60.256;18.694;2023-03-01T08:31:40;3.20;99.90
16158;DHT22;8184;60.256;18.694;2023-03-01T08:34:09;3.30;99.90
16158;DHT22;8184;60.256;18.694;2023-03-01T08:36:40;3.40;99.90
16158;DHT22;8184;60.256;18.694;2023-03-01T08:39:12;3.40;99.90
16158;DHT22;8184;60.256;18.694;2023-03-01T08:41:40;3.40;99.90
16158;DHT22;8184;60.256;18.694;2023-03-01T08:44:09;3.50;99.90
16158;DHT22;8184;60.256;18.694;2023-03-01T08:46:38;3.60;99.90
16158;DHT22;8184;60.256;18.694;2023-03-01T08:49:08;3.70;99.90
16158;DHT22;8184;60.256;18.694;2023-03-01T08:51:37;3.70;99.90
16158;DHT22;8184;60.256;18.694;2023-03-01T08:54:06;3.80;99.90
16158;DHT22;8184;60.256;18.694;2023-03-01T08:56:35;3.80;99.90
16158;DHT22;8184;60.256;18.694;2023-03-01T08:59:03;3.80;99.90
16158;DHT22;8184;60.256;18.694;2023-03-01T09:01:32;3.90;99.90
16158;DHT22;8184;60.256;18.694;2023-03-01T09:04:00;3.90;99.90
16158;DHT22;8184;60.256;18.694;2023-03-01T09:06:33;4.00;99.90
16158;DHT22;8184;60.256;18.694;2023-03-01T09:09:02;4.10;99.90
16158;DHT22;8184;60.256;18.694;2023-03-01T09:11:31;4.10;99.90
16158;DHT22;8184;60.256;18.694;2023-03-01T09:14:00;4.10;99.90
16158;DHT22;8184;60.256;18.694;2023-03-01T09:16:28;4.20;99.90
16158;DHT22;8184;60.256;18.694;2023-03-01T09:19:02;4.30;99.90
16158;DHT22;8184;60.256;18.694;2023-03-01T09:21:32;4.20;99.90
16158;DHT22;8184;60.256;18.694;2023-03-01T09:24:06;4.30;99.90
16158;DHT22;8184;60.256;18.694;2023-03-01T09:26:35;4.30;99.90
16158;DHT22;8184;60.256;18.694;2023-03-01T09:29:03;4.40;99.90
16158;DHT22;8184;60.256;18.694;2023-03-01T09:35:13;4.50;99.90
16158;DHT22;8184;60.256;18.694;2023-03-01T09:37:43;4.60;99.90
16158;DHT22;8184;60.256;18.694;2023-03-01T09:40:12;4.60;99.90
16158;DHT22;8184;60.256;18.694;2023-03-01T09:42:46;4.70;99.90
16158;DHT22;8184;60.256;18.694;2023-03-01T09:45:20;4.80;99.90
16158;DHT22;8184;60.256;18.694;2023-03-01T09:47:50;4.80;99.90
16158;DHT22;8184;60.256;18.694;2023-03-01T09:50:19;4.90;99.90
16158;DHT22;8184;60.256;18.694;2023-03-01T09:52:50;4.90;99.90
16158;DHT22;8184;60.256;18.694;2023-03-01T09:55:26;5.00;99.90
16158;DHT22;8184;60.256;18.694;2023-03-01T09:57:58;5.10;99.90
16158;DHT22;8184;60.256;18.694;2023-03-01T10:00:30;5.20;99.90
16158;DHT22;8184;60.256;18.694;2023-03-01T10:03:08;5.20;99.90
16158;DHT22;8184;60.256;18.694;2023-03-01T10:05:41;5.20;99.90
16158;DHT22;8184;60.256;18.694;2023-03-01T10:08:24;5.30;99.90
16158;DHT22;8184;60.256;18.694;2023-03-01T10:10:54;5.30;99.90
16158;DHT22;8184;60.256;18.694;2023-03-01T10:13:23;5.40;99.90
16158;DHT22;8184;60.256;18.694;2023-03-01T10:15:54;5.40;99.90
16158;DHT22;8184;60.256;18.694;2023-03-01T10:18:25;5.40;99.90
16158;DHT22;8184;60.256;18.694;2023-03-01T10:20:55;5.50;99.90
16158;DHT22;8184;60.256;18.694;2023-03-01T10:23:25;5.60;99.90
16158;DHT22;8184;60.256;18.694;2023-03-01T10:26:07;5.60;99.90
16158;DHT22;8184;60.256;18.694;2023-03-01T10:28:39;5.60;99.90
16158;DHT22;8184;60.256;18.694;2023-03-01T10:31:11;5.70;99.90
16158;DHT22;8184;60.256;18.694;2023-03-01T10:33:40;5.80;99.90
16158;DHT22;8184;60.256;18.694;2023-03-01T10:36:08;5.80;99.90
16158;DHT22;8184;60.256;18.694;2023-03-01T10:38:51;5.90;99.90
16158;DHT22;8184;60.256;18.694;2023-03-01T10:41:21;5.90;99.90
16158;DHT22;8184;60.256;18.694;2023-03-01T10:43:52;6.00;99.90
16158;DHT22;8184;60.256;18.694;2023-03-01T10:46:25;6.10;99.90
16158;DHT22;8184;60.256;18.694;2023-03-01T10:49:07;6.20;99.90
16158;DHT22;8184;60.256;18.694;2023-03-01T10:51:39;6.20;99.90
16158;DHT22;8184;60.256;18.694;2023-03-01T10:54:16;6.30;99.90
16158;DHT22;8184;60.256;18.694;2023-03-01T10:56:48;6.30;99.90
16158;DHT22;8184;60.256;18.694;2023-03-01T10:59:22;6.30;99.90
16158;DHT22;8184;60.256;18.694;2023-03-01T11:05:00;6.40;99.90
16158;DHT22;8184;60.256;18.694;2023-03-01T11:07:29;6.50;99.90
16158;DHT22;8184;60.256;18.694;2023-03-01T11:10:01;6.60;99.90
16158;DHT22;8184;60.256;18.694;2023-03-01T11:12:39;6.60;99.90
16158;DHT22;8184;60.256;18.694;2023-03-01T11:15:08;6.60;99.90
16158;DHT22;8184;60.256;18.694;2023-03-01T11:17:47;6.60;99.90
16158;DHT22;8184;60.256;18.694;2023-03-01T11:20:29;6.70;99.90
16158;DHT22;8184;60.256;18.694;2023-03-01T11:22:58;6.70;99.90
16158;DHT22;8184;60.256;18.694;2023-03-01T11:25:30;6.70;99.90
16158;DHT22;8184;60.256;18.694;2023-03-01T11:28:00;6.80;99.90
16158;DHT22;8184;60.256;18.694;2023-03-01T11:30:31;6.80;99.90
16158;DHT22;8184;60.256;18.694;2023-03-01T11:33:05;6.80;99.90
16158;DHT22;8184;60.256;18.694;2023-03-01T11:35:37;6.80;99.90
16158;DHT22;8184;60.256;18.694;2023-03-01T11:38:15;6.90;99.90
16158;DHT22;8184;60.256;18.694;2023-03-01T11:40:46;6.80;99.90
16158;DHT22;8184;60.256;18.694;2023-03-01T11:43:23;6.90;99.90
16158;DHT22;8184;60.256;18.694;2023-03-01T11:45:59;6.80;99.90
16158;DHT22;8184;60.256;18.694;2023-03-01T11:48:33;6.90;99.90
16158;DHT22;8184;60.256;18.694;2023-03-01T11:51:18;6.90;99.90
16158;DHT22;8184;60.256;18.694;2023-03-01T11:53:50;7.00;99.90
16158;DHT22;8184;60.256;18.694;2023-03-01T11:56:25;7.00;99.90
16158;DHT22;8184;60.256;18.694;2023-03-01T12:01:45;7.10;99.90
16158;DHT22;8184;60.256;18.694;2023-03-01T12:07:00;7.20;99.90
16158;DHT22;8184;60.256;18.694;2023-03-01T12:09:31;7.20;99.90
16158;DHT22;8184;60.256;18.694;2023-03-01T12:14:53;7.20;99.90
16158;DHT22;8184;60.256;18.694;2023-03-01T12:17:31;7.30;99.90
16158;DHT22;8184;60.256;18.694;2023-03-01T12:20:14;7.30;99.90
16158;DHT22;8184;60.256;18.694;2023-03-01T12:22:49;7.30;99.90
16158;DHT22;8184;60.256;18.694;2023-03-01T12:25:26;7.40;99.90
16158;DHT22;8184;60.256;18.694;2023-03-01T12:28:13;7.30;99.90
16158;DHT22;8184;60.256;18.694;2023-03-01T12:30:51;7.40;99.90
16158;DHT22;8184;60.256;18.694;2023-03-01T12:33:26;7.40;99.90
16158;DHT22;8184;60.256;18.694;2023-03-01T12:38:49;7.40;99.90
16158;DHT22;8184;60.256;18.694;2023-03-01T12:41:24;7.50;99.90
16158;DHT22;8184;60.256;18.694;2023-03-01T12:44:00;7.50;99.90
16158;DHT22;8184;60.256;18.694;2023-03-01T12:46:34;7.50;99.90
16158;DHT22;8184;60.256;18.694;2023-03-01T12:49:05;7.50;99.90
16158;DHT22;8184;60.256;18.694;2023-03-01T12:51:37;7.50;99.90
16158;DHT22;8184;60.256;18.694;2023-03-01T12:54:07;7.50;99.90
16158;DHT22;8184;60.256;18.694;2023-03-01T12:56:39;7.60;99.90
16158;DHT22;8184;60.256;18.694;2023-03-01T12:59:11;7.70;99.90
16158;DHT22;8184;60.256;18.694;2023-03-01T13:01:42;7.70;99.90
16158;DHT22;8184;60.256;18.694;2023-03-01T13:04:25;7.60;99.90
16158;DHT22;8184;60.256;18.694;2023-03-01T13:06:58;7.50;99.90
16158;DHT22;8184;60.256;18.694;2023-03-01T13:09:31;7.50;99.90
16158;DHT22;8184;60.256;18.694;2023-03-01T13:12:03;7.40;99.90
16158;DHT22;8184;60.256;18.694;2023-03-01T13:14:44;7.40;99.90
16158;DHT22;8184;60.256;18.694;2023-03-01T13:20:00;7.30;99.90
16158;DHT22;8184;60.256;18.694;2023-03-01T13:22:30;7.40;99.90
16158;DHT22;8184;60.256;18.694;2023-03-01T13:25:10;7.20;99.90
16158;DHT22;8184;60.256;18.694;2023-03-01T13:27:42;7.20;99.90
16158;DHT22;8184;60.256;18.694;2023-03-01T13:33:12;7.10;99.90
16158;DHT22;8184;60.256;18.694;2023-03-01T13:36:04;7.20;99.90
16158;DHT22;8184;60.256;18.694;2023-03-01T13:38:43;7.10;99.90
16158;DHT22;8184;60.256;18.694;2023-03-01T13:41:12;7.10;99.90
16158;DHT22;8184;60.256;18.694;2023-03-01T13:43:41;7.00;99.90
16158;DHT22;8184;60.256;18.694;2023-03-01T13:46:11;7.00;99.90
16158;DHT22;8184;60.256;18.694;2023-03-01T13:48:43;7.00;99.90
16158;DHT22;8184;60.256;18.694;2023-03-01T13:51:14;7.00;99.90
16158;DHT22;8184;60.256;18.694;2023-03-01T13:53:42;7.00;99.90
16158;DHT22;8184;60.256;18.694;2023-03-01T13:56:12;7.00;99.90
16158;DHT22;8184;60.256;18.694;2023-03-01T13:58:46;7.00;99.90
16158;DHT22;8184;60.256;18.694;2023-03-01T14:01:22;7.00;99.90
16158;DHT22;8184;60.256;18.694;2023-03-01T14:03:51;7.00;99.90
16158;DHT22;8184;60.256;18.694;2023-03-01T14:06:22;7.00;99.90
16158;DHT22;8184;60.256;18.694;2023-03-01T14:08:52;7.00;99.90
16158;DHT22;8184;60.256;18.694;2023-03-01T14:11:34;7.00;99.90
16158;DHT22;8184;60.256;18.694;2023-03-01T14:14:07;6.90;99.90
16158;DHT22;8184;60.256;18.694;2023-03-01T14:16:39;7.00;99.90
16158;DHT22;8184;60.256;18.694;2023-03-01T14:19:16;6.90;99.90
16158;DHT22;8184;60.256;18.694;2023-03-01T14:22:01;6.90;99.90
16158;DHT22;8184;60.256;18.694;2023-03-01T14:24:31;6.90;99.90
16158;DHT22;8184;60.256;18.694;2023-03-01T14:27:03;6.80;99.90
16158;DHT22;8184;60.256;18.694;2023-03-01T14:29:33;6.80;99.90
16158;DHT22;8184;60.256;18.694;2023-03-01T14:32:12;6.90;99.90
16158;DHT22;8184;60.256;18.694;2023-03-01T14:34:43;6.80;99.90
16158;DHT22;8184;60.256;18.694;2023-03-01T14:37:21;6.80;99.90
16158;DHT22;8184;60.256;18.694;2023-03-01T14:39:50;6.80;99.90
16158;DHT22;8184;60.256;18.694;2023-03-01T14:42:18;6.80;99.90
16158;DHT22;8184;60.256;18.694;2023-03-01T14:44:48;6.80;99.90
16158;DHT22;8184;60.256;18.694;2023-03-01T14:47:22;6.80;99.90
16158;DHT22;8184;60.256;18.694;2023-03-01T14:49:52;6.80;99.90
16158;DHT22;8184;60.256;18.694;2023-03-01T14:52:25;6.70;99.90
16158;DHT22;8184;60.256;18.694;2023-03-01T14:54:56;6.70;99.90
16158;DHT22;8184;60.256;18.694;2023-03-01T14:57:25;6.70;99.90
16158;DHT22;8184;60.256;18.694;2023-03-01T14:59:53;6.70;99.90
16158;DHT22;8184;60.256;18.694;2023-03-01T15:02:23;6.70;99.90
16158;DHT22;8184;60.256;18.694;2023-03-01T15:04:52;6.60;99.90
16158;DHT22;8184;60.256;18.694;2023-03-01T15:07:25;6.60;99.90
16158;DHT22;8184;60.256;18.694;2023-03-01T15:09:54;6.60;99.90
16158;DHT22;8184;60.256;18.694;2023-03-01T15:12:36;6.50;99.90
16158;DHT22;8184;60.256;18.694;2023-03-01T15:15:30;6.60;99.90
16158;DHT22;8184;60.256;18.694;2023-03-01T15:17:59;6.60;99.90
16158;DHT22;8184;60.256;18.694;2023-03-01T15:20:29;6.60;99.90
16158;DHT22;8184;60.256;18.694;2023-03-01T15:23:03;6.50;99.90
16158;DHT22;8184;60.256;18.694;2023-03-01T15:25:32;6.50;99.90
16158;DHT22;8184;60.256;18.694;2023-03-01T15:28:01;6.50;99.90
16158;DHT22;8184;60.256;18.694;2023-03-01T15:30:31;6.40;99.90
16158;DHT22;8184;60.256;18.694;2023-03-01T15:33:18;6.50;99.90
16158;DHT22;8184;60.256;18.694;2023-03-01T15:35:50;6.50;99.90
16158;DHT22;8184;60.256;18.694;2023-03-01T15:38:27;6.40;99.90
16158;DHT22;8184;60.256;18.694;2023-03-01T15:40:56;6.40;99.90
16158;DHT22;8184;60.256;18.694;2023-03-01T15:43:41;6.40;99.90
16158;DHT22;8184;60.256;18.694;2023-03-01T15:46:17;6.50;99.90
16158;DHT22;8184;60.256;18.694;2023-03-01T15:48:46;6.40;99.90
16158;DHT22;8184;60.256;18.694;2023-03-01T15:51:16;6.30;99.90
16158;DHT22;8184;60.256;18.694;2023-03-01T15:53:47;6.40;99.90
16158;DHT22;8184;60.256;18.694;2023-03-01T15:56:20;6.40;99.90
16158;DHT22;8184;60.256;18.694;2023-03-01T15:58:48;6.40;99.90
16158;DHT22;8184;60.256;18.694;2023-03-01T16:01:17;6.30;99.90
16158;DHT22;8184;60.256;18.694;2023-03-01T16:03:45;6.20;99.90
16158;DHT22;8184;60.256;18.694;2023-03-01T16:06:13;6.30;99.90
16158;DHT22;8184;60.256;18.694;2023-03-01T16:08:42;6.30;99.90
16158;DHT22;8184;60.256;18.694;2023-03-01T16:11:13;6.20;99.90
16158;DHT22;8184;60.256;18.694;2023-03-01T16:13:42;6.20;99.90
16158;DHT22;8184;60.256;18.694;2023-03-01T16:16:11;6.20;99.90
16158;DHT22;8184;60.256;18.694;2023-03-01T16:18:42;6.10;99.90
16158;DHT22;8184;60.256;18.694;2023-03-01T16:21:14;6.20;99.90
16158;DHT22;8184;60.256;18.694;2023-03-01T16:23:46;6.20;99.90
16158;DHT22;8184;60.256;18.694;2023-03-01T16:26:15;6.20;99.90
16158;DHT22;8184;60.256;18.694;2023-03-01T16:28:47;6.20;99.90
16158;DHT22;8184;60.256;18.694;2023-03-01T16:31:17;6.10;99.90
16158;DHT22;8184;60.256;18.694;2023-03-01T16:33:47;6.10;99.90
16158;DHT22;8184;60.256;18.694;2023-03-01T16:36:18;6.10;99.90